Time;durP1;ratioP1;P1;durP2;ratioP2;P2;SDS_P1;SDS_P2;PMS_P1;PMS_P2;Temp;Humidity;BMP_temperature;BMP_pressure;BME280_temperature;BME280_humidity;BME280_pressure;Samples;Min_cycle;Max_cycle;Signal;HPM_P1;HPM_P2
2022/09/24 00:01:18;;;;;;;12.18;10.70;;;14.30;99.90;;;;;;4914694;29;20035;-91
2022/09/24 00:03:50;;;;;;;11.80;10.60;;;14.30;99.90;;;;;;4914633;29;20058;-91
2022/09/24 00:06:19;;;;;;;11.88;10.73;;;14.30;99.90;;;;;;4914791;29;20039;-91
2022/09/24 00:08:48;;;;;;;15.07;12.23;;;14.30;99.90;;;;;;4914820;29;20175;-91
2022/09/24 00:11:15;;;;;;;12.00;10.70;;;14.30;99.90;;;;;;4914539;29;20032;-90
2022/09/24 00:13:41;;;;;;;17.30;11.82;;;14.30;99.90;;;;;;4914709;29;20044;-91
2022/09/24 00:16:10;;;;;;;13.95;12.43;;;14.30;99.90;;;;;;4899320;29;20104;-91
2022/09/24 00:18:37;;;;;;;14.30;11.95;;;14.30;99.90;;;;;;4914624;29;20056;-91
2022/09/24 00:21:12;;;;;;;14.07;12.50;;;14.20;99.90;;;;;;4914074;29;20148;-92
2022/09/24 00:23:38;;;;;;;11.77;10.57;;;14.30;99.90;;;;;;4930208;29;20125;-91
2022/09/24 00:28:50;;;;;;;12.73;11.48;;;14.20;99.90;;;;;;4930273;29;20047;-91
2022/09/24 00:31:16;;;;;;;13.80;11.85;;;14.30;99.90;;;;;;4914207;29;20084;-91
2022/09/24 00:33:42;;;;;;;16.88;13.30;;;14.20;99.90;;;;;;4914450;29;20036;-91
2022/09/24 00:36:09;;;;;;;14.38;11.32;;;14.30;99.90;;;;;;4898983;29;20040;-91
2022/09/24 00:38:35;;;;;;;14.63;10.32;;;14.20;99.90;;;;;;4913882;29;20048;-91
2022/09/24 00:41:02;;;;;;;15.07;12.93;;;14.20;99.90;;;;;;4914256;29;20035;-92
2022/09/24 00:43:33;;;;;;;12.48;11.20;;;14.20;99.90;;;;;;4914154;29;20036;-91
2022/09/24 00:46:35;;;;;;;13.25;11.90;;;14.20;99.90;;;;;;4929983;29;20066;-90
2022/09/24 00:49:14;;;;;;;18.45;11.50;;;14.20;99.90;;;;;;4929959;29;20084;-90
2022/09/24 00:51:43;;;;;;;16.88;12.52;;;14.20;99.90;;;;;;4913798;29;20032;-92
2022/09/24 00:54:14;;;;;;;12.73;11.52;;;14.20;99.90;;;;;;4913959;29;20497;-92
2022/09/24 00:56:42;;;;;;;14.38;10.57;;;14.20;99.90;;;;;;4929713;29;20041;-91
2022/09/24 00:59:12;;;;;;;12.23;11.02;;;14.20;99.90;;;;;;4913910;29;20100;-90
2022/09/24 01:01:38;;;;;;;12.50;11.32;;;14.20;99.90;;;;;;4913662;29;20028;-91
2022/09/24 01:04:06;;;;;;;15.80;12.35;;;14.20;99.90;;;;;;4913841;29;20038;-90
2022/09/24 01:06:32;;;;;;;12.77;11.38;;;14.20;99.90;;;;;;4898064;29;20100;-91
2022/09/24 01:08:59;;;;;;;12.50;10.70;;;14.20;99.90;;;;;;4913736;29;20060;-90
2022/09/24 01:11:37;;;;;;;12.13;10.88;;;14.20;99.90;;;;;;4929310;29;20028;-92
2022/09/24 01:14:06;;;;;;;12.75;11.40;;;14.10;99.90;;;;;;4929222;29;20040;-91
2022/09/24 01:16:48;;;;;;;15.77;11.32;;;14.20;99.90;;;;;;4913753;29;20032;-91
2022/09/24 01:19:43;;;;;;;11.35;10.20;;;14.10;99.90;;;;;;4913588;29;20031;-91
2022/09/24 01:22:22;;;;;;;14.82;13.00;;;14.10;99.90;;;;;;4914973;29;20052;-92
2022/09/24 01:25:02;;;;;;;15.73;12.13;;;14.10;99.90;;;;;;4929228;29;20103;-91
2022/09/24 01:27:40;;;;;;;;;;;14.10;99.90;;;;;;4929603;29;20044;-91
2022/09/24 01:30:11;;;;;;;14.57;13.02;;;14.10;99.90;;;;;;4913611;29;19911;-91
2022/09/24 01:32:58;;;;;;;15.13;13.43;;;14.10;99.90;;;;;;4928921;29;20032;-91
2022/09/24 01:35:32;;;;;;;13.60;11.63;;;14.10;99.90;;;;;;4928974;29;20034;-90
2022/09/24 01:38:03;;;;;;;14.45;12.88;;;14.10;99.90;;;;;;4928611;29;20024;-90
2022/09/24 01:40:30;;;;;;;15.57;13.98;;;14.10;99.90;;;;;;4912863;29;20028;-92
2022/09/24 01:42:59;;;;;;;14.75;13.07;;;14.10;99.90;;;;;;4913245;29;20035;-91
2022/09/24 01:45:30;;;;;;;17.40;13.48;;;14.10;99.90;;;;;;4913058;29;20032;-91
2022/09/24 01:47:59;;;;;;;14.65;13.20;;;14.10;99.90;;;;;;4913310;29;20078;-91
2022/09/24 01:50:29;;;;;;;14.23;12.75;;;14.00;99.90;;;;;;4913489;29;20020;-91
2022/09/24 01:53:01;;;;;;;17.13;12.68;;;14.10;99.90;;;;;;4912520;29;20032;-91
2022/09/24 01:55:33;;;;;;;15.70;14.15;;;14.00;99.90;;;;;;4909843;29;20033;-91
2022/09/24 01:58:12;;;;;;;19.60;13.48;;;14.10;99.90;;;;;;4894335;29;20032;-91
2022/09/24 02:00:44;;;;;;;21.30;12.63;;;14.00;99.90;;;;;;4909991;29;20033;-91
2022/09/24 02:03:33;;;;;;;14.35;13.05;;;14.00;99.90;;;;;;4894144;29;20398;-91
2022/09/24 02:06:24;;;;;;;15.13;13.60;;;14.00;99.90;;;;;;4894350;29;20047;-91
2022/09/24 02:08:49;;;;;;;;;;;14.00;99.90;;;;;;4903120;29;20028;-89
2022/09/24 02:11:22;;;;;;;14.15;12.80;;;14.00;99.90;;;;;;4912858;29;20280;-91
2022/09/24 02:14:11;;;;;;;17.58;15.80;;;14.00;99.90;;;;;;4928204;29;20401;-90
2022/09/24 02:16:49;;;;;;;16.27;14.63;;;14.00;99.90;;;;;;4928662;29;20039;-91
2022/09/24 02:19:23;;;;;;;14.57;13.15;;;14.00;99.90;;;;;;4912964;29;20039;-91
2022/09/24 02:21:50;;;;;;;18.50;14.88;;;14.00;99.90;;;;;;4928023;29;20111;-91
2022/09/24 02:24:21;;;;;;;16.17;13.18;;;14.00;99.90;;;;;;4912674;29;20047;-91
2022/09/24 02:26:48;;;;;;;15.45;13.50;;;14.00;99.90;;;;;;4912791;29;20040;-91
2022/09/24 02:29:14;;;;;;;15.77;14.07;;;14.00;99.90;;;;;;4928554;29;20020;-92
2022/09/24 02:31:46;;;;;;;16.05;14.38;;;14.00;99.90;;;;;;4912894;29;20039;-91
2022/09/24 02:34:20;;;;;;;16.90;15.10;;;14.00;99.90;;;;;;4912584;29;20060;-91
2022/09/24 02:36:58;;;;;;;19.92;13.20;;;14.00;99.90;;;;;;4912424;29;20028;-91
2022/09/24 02:39:24;;;;;;;15.77;13.63;;;14.00;99.90;;;;;;4912455;29;20034;-91
2022/09/24 02:41:51;;;;;;;16.25;14.55;;;14.00;99.90;;;;;;4912862;29;20027;-91
2022/09/24 02:44:18;;;;;;;15.85;14.15;;;14.00;99.90;;;;;;4912469;29;20104;-91
2022/09/24 02:46:45;;;;;;;16.10;14.20;;;14.00;99.90;;;;;;4928103;29;20063;-91
2022/09/24 02:49:13;;;;;;;15.85;14.35;;;14.00;99.90;;;;;;4912835;29;20508;-92
2022/09/24 02:51:39;;;;;;;14.35;12.95;;;14.00;99.90;;;;;;4915108;29;20036;-91
2022/09/24 02:54:06;;;;;;;16.20;14.30;;;14.00;99.90;;;;;;4915879;29;20033;-90
2022/09/24 02:56:33;;;;;;;15.60;13.98;;;14.00;99.90;;;;;;4916128;29;20040;-92
2022/09/24 02:59:00;;;;;;;15.68;14.05;;;14.00;99.90;;;;;;4931687;29;20450;-91
2022/09/24 03:01:26;;;;;;;18.60;15.60;;;14.00;99.90;;;;;;4885452;29;20028;-91
2022/09/24 03:03:52;;;;;;;15.55;14.05;;;14.00;99.90;;;;;;4915976;29;20032;-91
2022/09/24 03:06:18;;;;;;;15.57;14.07;;;14.00;99.90;;;;;;4915579;29;20419;-92
2022/09/24 03:08:46;;;;;;;16.25;14.48;;;13.90;99.90;;;;;;4900494;29;20032;-91
2022/09/24 03:11:13;;;;;;;16.67;14.30;;;13.90;99.90;;;;;;4915745;29;20047;-90
2022/09/24 03:13:39;;;;;;;15.57;14.00;;;14.00;99.90;;;;;;4915711;29;20036;-91
2022/09/24 03:16:07;;;;;;;18.67;16.63;;;14.10;99.90;;;;;;4915769;29;20036;-91
2022/09/24 03:18:34;;;;;;;19.88;16.25;;;13.90;99.90;;;;;;4915711;29;20462;-91
2022/09/24 03:21:05;;;;;;;18.33;16.52;;;13.90;99.90;;;;;;4899471;29;20494;-90
2022/09/24 03:23:31;;;;;;;18.30;15.10;;;13.90;99.90;;;;;;4915516;29;20067;-90
2022/09/24 03:25:57;;;;;;;20.23;15.60;;;14.00;99.90;;;;;;4900035;29;20056;-91
2022/09/24 03:28:23;;;;;;;23.40;17.85;;;13.90;99.90;;;;;;4915411;29;20036;-90
2022/09/24 03:31:01;;;;;;;16.92;14.95;;;13.90;99.90;;;;;;4899957;29;20051;-90
2022/09/24 03:33:32;;;;;;;18.50;15.77;;;13.90;99.90;;;;;;4930751;29;20032;-91
2022/09/24 03:36:04;;;;;;;21.85;16.10;;;13.90;99.90;;;;;;4915340;29;20114;-91
2022/09/24 03:38:32;;;;;;;24.73;15.88;;;13.90;99.90;;;;;;4915138;29;20091;-91
2022/09/24 03:40:59;;;;;;;19.75;17.35;;;13.90;99.90;;;;;;4915245;29;20028;-91
2022/09/24 03:43:25;;;;;;;16.85;14.98;;;13.90;99.90;;;;;;4915288;29;20028;-91
2022/09/24 03:45:51;;;;;;;18.02;16.17;;;14.00;99.90;;;;;;4915248;29;20039;-91
2022/09/24 03:48:19;;;;;;;18.15;15.07;;;14.00;99.90;;;;;;4899651;29;20030;-91
2022/09/24 03:50:46;;;;;;;17.85;15.95;;;14.00;99.90;;;;;;4914901;29;20040;-90
2022/09/24 03:53:13;;;;;;;20.05;18.08;;;13.90;99.90;;;;;;4914715;29;20095;-92
2022/09/24 03:55:44;;;;;;;16.83;15.10;;;14.00;99.90;;;;;;4930738;29;20385;-91
2022/09/24 03:58:10;;;;;;;18.85;14.15;;;13.90;99.90;;;;;;4899538;29;20046;-91
2022/09/24 04:00:36;;;;;;;20.67;16.60;;;13.90;99.90;;;;;;4899312;29;20036;-91
2022/09/24 04:03:02;;;;;;;21.67;16.60;;;;;;;;;;4914091;29;20031;-91
2022/09/24 04:05:29;;;;;;;15.00;13.60;;;13.90;99.90;;;;;;4914854;29;20114;-91
2022/09/24 04:07:55;;;;;;;20.83;15.93;;;13.90;99.90;;;;;;4899175;29;20032;-91
2022/09/24 04:10:23;;;;;;;20.40;15.98;;;14.00;99.90;;;;;;4914564;29;20477;-92
2022/09/24 04:12:49;;;;;;;29.40;16.77;;;13.90;99.90;;;;;;4929969;29;20119;-91
2022/09/24 04:15:17;;;;;;;16.05;13.70;;;13.90;99.90;;;;;;4930519;29;20079;-92
2022/09/24 04:17:56;;;;;;;17.30;15.48;;;13.90;99.90;;;;;;4914689;29;20091;-92
2022/09/24 04:20:25;;;;;;;14.98;13.48;;;13.90;99.90;;;;;;4914380;29;20067;-91
2022/09/24 04:22:55;;;;;;;17.20;15.68;;;13.90;99.90;;;;;;4930313;29;20036;-91
2022/09/24 04:25:21;;;;;;;;;;;13.90;99.90;;;;;;4915545;29;20028;-92
2022/09/24 04:27:53;;;;;;;18.20;16.08;;;13.90;99.90;;;;;;4914419;29;19907;-91
2022/09/24 04:30:19;;;;;;;17.40;15.35;;;;;;;;;;4929784;29;20039;-91
2022/09/24 04:32:45;;;;;;;16.55;14.65;;;13.90;99.90;;;;;;4929892;29;20056;-91
2022/09/24 04:35:11;;;;;;;17.17;14.65;;;13.90;99.90;;;;;;4913431;29;20104;-91
2022/09/24 04:37:37;;;;;;;17.08;15.32;;;13.90;99.90;;;;;;4945710;29;20039;-90
2022/09/24 04:40:05;;;;;;;17.90;15.95;;;13.90;99.90;;;;;;4914225;29;20043;-92
2022/09/24 04:42:31;;;;;;;15.43;13.90;;;13.90;99.90;;;;;;4929334;29;20036;-92
2022/09/24 04:44:58;;;;;;;18.30;15.13;;;13.90;99.90;;;;;;4913215;29;20029;-92
2022/09/24 04:47:24;;;;;;;17.50;15.65;;;13.90;99.90;;;;;;4894659;29;20036;-91
2022/09/24 04:49:51;;;;;;;20.27;15.95;;;13.90;99.90;;;;;;4912176;29;20115;-90
2022/09/24 04:52:17;;;;;;;19.58;16.98;;;13.80;99.90;;;;;;4913347;29;20453;-91
2022/09/24 04:54:45;;;;;;;23.58;18.30;;;13.80;99.90;;;;;;4908150;29;20024;-91
2022/09/24 04:57:14;;;;;;;26.30;16.63;;;13.80;99.90;;;;;;4926235;29;20024;-91
2022/09/24 04:59:40;;;;;;;19.35;16.73;;;13.80;99.90;;;;;;4897706;29;20040;-91
2022/09/24 05:02:07;;;;;;;16.17;14.55;;;13.80;99.90;;;;;;4929154;29;20032;-91
2022/09/24 05:04:34;;;;;;;16.55;14.80;;;13.80;99.90;;;;;;4881157;29;20072;-91
2022/09/24 05:07:00;;;;;;;16.50;14.80;;;13.80;99.90;;;;;;4926390;29;20032;-91
2022/09/24 05:09:26;;;;;;;19.33;15.60;;;13.80;99.90;;;;;;4906007;29;20024;-91
2022/09/24 05:11:52;;;;;;;15.75;14.05;;;;;;;;;;4897716;29;20020;-91
2022/09/24 05:14:18;;;;;;;18.17;15.50;;;13.80;99.90;;;;;;4910960;29;20040;-91
2022/09/24 05:16:44;;;;;;;21.40;17.85;;;13.80;99.90;;;;;;4897723;29;20439;-91
2022/09/24 05:19:10;;;;;;;16.48;14.65;;;;;;;;;;4928622;29;20035;-91
2022/09/24 05:21:36;;;;;;;16.85;14.40;;;13.80;99.90;;;;;;4928798;29;20052;-91
2022/09/24 05:24:02;;;;;;;16.77;13.32;;;13.80;99.90;;;;;;4942246;29;20060;-90
2022/09/24 05:29:12;;;;;;;16.08;14.30;;;13.80;99.90;;;;;;4928811;29;20040;-91
2022/09/24 05:31:38;;;;;;;14.27;12.88;;;13.70;99.90;;;;;;4928914;29;20056;-92
2022/09/24 05:34:04;;;;;;;18.30;15.38;;;13.80;99.90;;;;;;4928629;29;20044;-90
2022/09/24 05:36:30;;;;;;;18.50;15.90;;;13.80;99.90;;;;;;4928769;29;20028;-90
2022/09/24 05:38:56;;;;;;;17.17;15.35;;;13.70;99.90;;;;;;4929265;29;20064;-91
2022/09/24 05:41:22;;;;;;;16.85;15.05;;;;;;;;;;4929986;29;20028;-90
2022/09/24 05:43:48;;;;;;;13.90;12.60;;;13.80;99.90;;;;;;4925615;29;20497;-90
2022/09/24 05:46:14;;;;;;;16.80;15.23;;;13.80;99.90;;;;;;4928983;29;20446;-90
2022/09/24 05:48:41;;;;;;;21.58;14.88;;;13.70;99.90;;;;;;4927640;29;20036;-92
2022/09/24 05:51:06;;;;;;;16.98;14.10;;;13.80;99.90;;;;;;4913211;29;20096;-91
2022/09/24 05:53:32;;;;;;;18.83;15.20;;;13.80;99.90;;;;;;4913485;29;20032;-91
2022/09/24 05:55:59;;;;;;;15.77;14.15;;;13.80;99.90;;;;;;4901342;29;20037;-91
2022/09/24 05:58:25;;;;;;;18.05;15.10;;;;;;;;;;4895671;29;20490;-92
2022/09/24 06:00:52;;;;;;;16.25;14.45;;;;;;;;;;4912976;29;20036;-91
2022/09/24 06:03:19;;;;;;;15.85;14.25;;;13.80;99.90;;;;;;4898760;29;20035;-91
2022/09/24 06:05:45;;;;;;;21.95;14.07;;;;;;;;;;4913217;29;20501;-90
2022/09/24 06:08:14;;;;;;;20.17;17.10;;;13.80;99.90;;;;;;4929230;29;20091;-90
2022/09/24 06:10:41;;;;;;;14.90;13.32;;;13.70;99.90;;;;;;4928852;29;20040;-91
2022/09/24 06:13:10;;;;;;;15.75;14.27;;;13.70;99.90;;;;;;4928806;29;20048;-91
2022/09/24 06:15:41;;;;;;;17.17;15.40;;;13.80;99.90;;;;;;4928823;29;20032;-91
2022/09/24 06:18:08;;;;;;;17.08;14.88;;;13.80;99.90;;;;;;4897612;29;20029;-91
2022/09/24 06:20:34;;;;;;;14.48;12.98;;;;;;;;;;4928799;29;20067;-90
2022/09/24 06:23:01;;;;;;;16.27;12.45;;;;;;;;;;4912971;29;20446;-91
2022/09/24 06:25:28;;;;;;;13.85;12.40;;;13.80;99.90;;;;;;4914273;29;20055;-91
2022/09/24 06:28:01;;;;;;;16.35;13.45;;;13.80;99.90;;;;;;4916793;29;20035;-91
2022/09/24 06:30:38;;;;;;;16.65;12.60;;;13.80;99.90;;;;;;4917382;29;20024;-84
2022/09/24 06:33:06;;;;;;;16.98;15.40;;;13.80;99.90;;;;;;4932871;29;20032;-87
2022/09/24 06:35:36;;;;;;;19.42;14.65;;;13.70;99.90;;;;;;4932065;29;20111;-89
2022/09/24 06:38:03;;;;;;;;;;;13.80;99.90;;;;;;4932244;29;20024;-89
2022/09/24 06:40:29;;;;;;;14.85;13.23;;;13.70;99.90;;;;;;4931609;29;19998;-89
2022/09/24 06:42:55;;;;;;;16.33;14.60;;;13.70;99.90;;;;;;4931789;29;20028;-88
2022/09/24 06:45:21;;;;;;;16.55;13.73;;;13.70;99.90;;;;;;4932680;29;20058;-88
2022/09/24 06:47:55;;;;;;;14.10;12.65;;;13.70;99.90;;;;;;4915281;29;20034;-88
2022/09/24 06:50:23;;;;;;;12.80;11.60;;;13.70;99.90;;;;;;4931751;29;20099;-88
2022/09/24 06:52:49;;;;;;;17.27;14.15;;;13.70;99.90;;;;;;4931411;29;20036;-88
2022/09/24 06:55:15;;;;;;;14.65;11.48;;;13.70;99.90;;;;;;4931265;29;20064;-88
2022/09/24 06:57:41;;;;;;;16.00;14.25;;;13.70;99.90;;;;;;4915490;29;20032;-88
2022/09/24 07:00:08;;;;;;;14.52;13.02;;;13.70;99.90;;;;;;4931420;29;20488;-87
2022/09/24 07:02:33;;;;;;;14.18;12.77;;;13.70;99.90;;;;;;4899915;29;20439;-88
2022/09/24 07:04:59;;;;;;;14.57;13.20;;;13.70;99.90;;;;;;4931138;29;20032;-88
2022/09/24 07:07:28;;;;;;;14.73;13.18;;;13.80;99.90;;;;;;4932371;29;20044;-87
2022/09/24 07:10:07;;;;;;;12.43;11.07;;;13.80;99.90;;;;;;4931099;29;20047;-88
2022/09/24 07:12:35;;;;;;;15.63;13.32;;;13.70;99.90;;;;;;4915101;29;20107;-88
2022/09/24 07:15:01;;;;;;;16.40;12.50;;;13.80;99.90;;;;;;4930656;29;20039;-88
2022/09/24 07:17:28;;;;;;;13.65;12.30;;;13.80;99.90;;;;;;4930789;29;20024;-88
2022/09/24 07:19:54;;;;;;;13.18;11.88;;;13.80;99.90;;;;;;4930529;29;20059;-88
2022/09/24 07:22:21;;;;;;;15.57;12.65;;;13.80;99.90;;;;;;4930533;29;20048;-88
2022/09/24 07:24:47;;;;;;;16.50;14.35;;;13.80;99.90;;;;;;4930714;29;20038;-88
2022/09/24 07:27:13;;;;;;;17.05;13.68;;;13.80;99.90;;;;;;4923202;29;20064;-88
2022/09/24 07:29:40;;;;;;;17.23;11.82;;;13.80;99.90;;;;;;4925229;29;20036;-88
2022/09/24 07:32:05;;;;;;;11.40;10.20;;;13.80;99.90;;;;;;4930455;29;20478;-88
2022/09/24 07:34:31;;;;;;;12.60;11.13;;;13.80;99.90;;;;;;4914873;29;20051;-88
2022/09/24 07:36:57;;;;;;;15.48;13.48;;;13.80;99.90;;;;;;4929765;29;20024;-88
2022/09/24 07:39:24;;;;;;;15.50;13.90;;;13.80;99.90;;;;;;4899427;29;20048;-88
2022/09/24 07:41:53;;;;;;;19.02;12.90;;;13.80;99.90;;;;;;4914808;29;20039;-88
2022/09/24 07:44:20;;;;;;;13.43;12.00;;;13.90;99.90;;;;;;4899957;29;20036;-88
2022/09/24 07:46:47;;;;;;;16.55;14.25;;;13.80;99.90;;;;;;4898882;29;20028;-88
2022/09/24 07:49:13;;;;;;;17.40;13.13;;;13.90;99.90;;;;;;4930561;29;20114;-88
2022/09/24 07:51:39;;;;;;;14.48;11.68;;;13.90;99.90;;;;;;4930579;29;20028;-88
2022/09/24 07:54:05;;;;;;;15.63;11.82;;;13.90;99.90;;;;;;4914635;29;20509;-88
2022/09/24 07:56:34;;;;;;;17.75;14.25;;;13.90;99.90;;;;;;4930606;29;20039;-89
2022/09/24 07:59:00;;;;;;;14.05;12.55;;;13.90;99.90;;;;;;4930646;29;20397;-88
2022/09/24 08:01:26;;;;;;;11.70;10.48;;;13.90;99.90;;;;;;4914190;29;20029;-89
2022/09/24 08:03:52;;;;;;;14.27;12.88;;;13.90;99.90;;;;;;4931534;29;20067;-88
2022/09/24 08:06:21;;;;;;;11.82;10.63;;;14.00;99.90;;;;;;4930428;29;20036;-88
2022/09/24 08:08:55;;;;;;;17.00;13.02;;;14.00;99.90;;;;;;4914720;29;20028;-87
2022/09/24 08:11:21;;;;;;;13.48;12.07;;;14.00;99.90;;;;;;4930067;29;20047;-88
2022/09/24 08:13:48;;;;;;;13.15;11.25;;;14.00;99.90;;;;;;4928649;29;20115;-88
2022/09/24 08:16:15;;;;;;;14.00;9.82;;;14.00;99.90;;;;;;4928531;29;20453;-89
2022/09/24 08:18:44;;;;;;;12.38;10.60;;;;;;;;;;4914078;29;20039;-88
2022/09/24 08:21:10;;;;;;;12.88;11.57;;;14.00;99.90;;;;;;4910753;29;20055;-88
2022/09/24 08:23:45;;;;;;;14.85;13.43;;;14.00;99.90;;;;;;4929883;29;20047;-88
2022/09/24 08:26:12;;;;;;;13.65;11.60;;;14.00;99.90;;;;;;4895551;29;20040;-88
2022/09/24 08:28:42;;;;;;;12.73;11.40;;;14.00;99.90;;;;;;4895591;29;20164;-88
2022/09/24 08:31:13;;;;;;;16.60;12.18;;;14.00;99.90;;;;;;4929862;29;20024;-89
2022/09/24 08:33:38;;;;;;;;;;;14.00;99.90;;;;;;4928663;29;20450;-88
2022/09/24 08:36:08;;;;;;;13.18;10.43;;;14.10;99.90;;;;;;4913735;29;19911;-88
2022/09/24 08:38:37;;;;;;;12.45;11.32;;;14.10;99.90;;;;;;4929514;29;20377;-88
2022/09/24 08:41:12;;;;;;;14.83;13.10;;;14.10;99.90;;;;;;4913732;29;20103;-88
2022/09/24 08:44:04;;;;;;;13.93;11.90;;;14.10;99.90;;;;;;4913719;29;20078;-88
2022/09/24 08:49:26;;;;;;;13.77;11.27;;;14.20;99.90;;;;;;4926875;29;20112;-89
2022/09/24 08:52:25;;;;;;;11.07;9.38;;;14.20;99.90;;;;;;4909231;29;20047;-88
2022/09/24 08:54:53;;;;;;;11.15;9.93;;;14.20;99.90;;;;;;4926939;29;20040;-88
2022/09/24 08:57:20;;;;;;;11.27;10.15;;;14.20;99.90;;;;;;4912890;29;20028;-89
2022/09/24 08:59:52;;;;;;;11.20;10.02;;;14.20;99.90;;;;;;4929839;29;20036;-89
2022/09/24 09:02:59;;;;;;;11.75;10.55;;;14.20;99.90;;;;;;4932782;29;20050;-89
2022/09/24 09:05:46;;;;;;;13.57;10.70;;;14.30;99.90;;;;;;4928963;29;20024;-89
2022/09/24 09:08:26;;;;;;;14.75;12.23;;;14.30;99.90;;;;;;4928921;29;20028;-90
2022/09/24 09:11:00;;;;;;;13.85;10.05;;;14.30;99.90;;;;;;4928780;29;20032;-90
2022/09/24 09:13:37;;;;;;;12.23;10.18;;;14.30;99.90;;;;;;4927290;29;20048;-89
2022/09/24 09:16:26;;;;;;;11.60;9.30;;;14.40;99.90;;;;;;4928297;29;20038;-89
2022/09/24 09:18:59;;;;;;;14.10;11.23;;;14.30;99.90;;;;;;4912512;29;20032;-90
2022/09/24 09:21:45;;;;;;;13.40;11.52;;;14.30;99.90;;;;;;4928182;29;20037;-89
2022/09/24 09:24:23;;;;;;;13.32;10.52;;;14.30;99.90;;;;;;4928425;29;20028;-89
2022/09/24 09:26:53;;;;;;;12.15;10.40;;;14.40;99.90;;;;;;4928506;29;20393;-90
2022/09/24 09:29:20;;;;;;;16.13;12.07;;;14.40;99.90;;;;;;4912379;29;20051;-89
2022/09/24 09:32:22;;;;;;;17.20;11.18;;;14.40;99.90;;;;;;4944477;29;20083;-89
2022/09/24 09:35:10;;;;;;;12.85;11.63;;;14.40;99.90;;;;;;4912053;29;20548;-89
2022/09/24 09:38:16;;;;;;;10.98;9.85;;;14.50;99.90;;;;;;4928691;29;20118;-90
2022/09/24 09:40:58;;;;;;;10.95;9.75;;;14.50;99.90;;;;;;4928793;29;20107;-89
2022/09/24 09:43:25;;;;;;;12.32;11.05;;;14.50;99.90;;;;;;4927883;29;20088;-89
2022/09/24 09:46:14;;;;;;;13.93;10.88;;;14.50;99.90;;;;;;4929644;29;20035;-89
2022/09/24 09:48:46;;;;;;;12.45;10.85;;;14.50;99.90;;;;;;4929820;29;20032;-89
2022/09/24 09:51:20;;;;;;;11.05;9.90;;;14.60;99.90;;;;;;4912727;29;20032;-89
2022/09/24 09:54:12;;;;;;;11.75;10.15;;;14.60;99.90;;;;;;4927771;29;20032;-89
2022/09/24 09:56:45;;;;;;;15.82;9.55;;;14.60;99.90;;;;;;4909639;29;20042;-89
2022/09/24 09:59:11;;;;;;;11.55;9.35;;;14.60;99.90;;;;;;4928371;29;20036;-90
2022/09/24 10:01:42;;;;;;;13.43;10.57;;;14.60;99.90;;;;;;4912083;29;20030;-89
2022/09/24 10:04:27;;;;;;;11.23;10.02;;;14.70;99.90;;;;;;4928226;29;20028;-90
2022/09/24 10:07:03;;;;;;;13.35;8.60;;;14.70;99.90;;;;;;4928195;29;20056;-89
2022/09/24 10:09:29;;;;;;;11.15;10.00;;;14.70;99.90;;;;;;4928194;29;20071;-89
2022/09/24 10:12:06;;;;;;;11.15;9.65;;;14.70;99.90;;;;;;4927903;29;20035;-88
2022/09/24 10:14:32;;;;;;;11.52;8.63;;;14.70;99.90;;;;;;4912308;29;20091;-90
2022/09/24 10:17:04;;;;;;;15.60;10.95;;;14.70;99.90;;;;;;4896363;29;20024;-89
2022/09/24 10:19:34;;;;;;;10.30;9.13;;;14.80;99.90;;;;;;4927634;29;20039;-89
2022/09/24 10:22:17;;;;;;;10.82;9.68;;;14.80;99.90;;;;;;4927884;29;20426;-90
2022/09/24 10:24:43;;;;;;;9.60;8.23;;;14.80;99.90;;;;;;4911651;29;20044;-90
2022/09/24 10:27:11;;;;;;;16.77;9.25;;;14.80;99.90;;;;;;4912020;29;20043;-90
2022/09/24 10:32:24;;;;;;;11.65;8.73;;;14.80;99.90;;;;;;4927758;29;20032;-90
2022/09/24 10:35:00;;;;;;;10.60;9.48;;;14.80;99.90;;;;;;4928099;29;20032;-90
2022/09/24 10:37:28;;;;;;;18.23;10.40;;;14.80;99.90;;;;;;4927024;29;20035;-90
2022/09/24 10:40:14;;;;;;;10.50;9.45;;;14.80;99.90;;;;;;4927207;29;20020;-90
2022/09/24 10:42:39;;;;;;;11.95;9.13;;;14.90;99.90;;;;;;4909122;29;20077;-90
2022/09/24 10:45:12;;;;;;;10.95;9.70;;;14.90;99.90;;;;;;4895701;29;20028;-88
2022/09/24 10:47:48;;;;;;;11.93;10.18;;;14.90;99.90;;;;;;4928123;29;20032;-90
2022/09/24 10:50:27;;;;;;;9.70;8.70;;;14.90;99.90;;;;;;4911619;29;20108;-90
2022/09/24 10:52:58;;;;;;;10.38;9.13;;;14.90;99.90;;;;;;4911578;29;20032;-90
2022/09/24 10:55:38;;;;;;;11.02;8.63;;;14.90;99.90;;;;;;4927689;29;20028;-90
2022/09/24 10:58:27;;;;;;;10.27;9.23;;;14.90;99.90;;;;;;4901883;29;20123;-90
2022/09/24 11:01:16;;;;;;;10.80;9.63;;;15.00;99.90;;;;;;4908804;29;20029;-90
2022/09/24 11:04:05;;;;;;;13.00;10.60;;;15.00;99.90;;;;;;4909831;29;20064;-90
2022/09/24 11:07:15;;;;;;;10.93;9.80;;;15.00;99.90;;;;;;4921630;29;20036;-90
2022/09/24 11:09:58;;;;;;;13.00;9.90;;;15.00;99.90;;;;;;4896706;29;20063;-90
2022/09/24 11:12:52;;;;;;;10.02;9.02;;;15.10;99.90;;;;;;4911380;29;20036;-90
2022/09/24 11:15:50;;;;;;;8.38;7.43;;;15.10;99.90;;;;;;4896639;29;20036;-90
2022/09/24 11:18:56;;;;;;;13.68;10.63;;;15.10;99.90;;;;;;4896441;29;20063;-90
2022/09/24 11:21:22;;;;;;;11.90;8.05;;;15.10;99.90;;;;;;4911768;29;20059;-90
2022/09/24 11:23:53;;;;;;;9.13;7.32;;;15.10;99.90;;;;;;4925289;29;20036;-90
2022/09/24 11:26:46;;;;;;;8.18;6.65;;;15.10;99.90;;;;;;4915273;29;20124;-90
2022/09/24 11:29:29;;;;;;;7.35;6.75;;;15.10;99.90;;;;;;4930925;29;20028;-90
2022/09/24 11:32:12;;;;;;;12.02;7.18;;;15.20;99.90;;;;;;4930331;29;20052;-87
2022/09/24 11:35:02;;;;;;;7.32;6.43;;;15.30;99.90;;;;;;4939072;29;20107;-87
2022/09/24 11:37:48;;;;;;;5.35;4.45;;;15.30;99.90;;;;;;4916227;29;20024;-86
2022/09/24 11:40:51;;;;;;;10.30;3.53;;;15.30;99.90;;;;;;4923319;29;20035;-86
2022/09/24 11:43:55;;;;;;;9.55;5.65;;;15.30;99.90;;;;;;4928902;29;20066;-86
2022/09/24 11:46:21;;;;;;;7.00;5.60;;;15.30;99.90;;;;;;4930134;29;20458;-86
2022/09/24 11:49:13;;;;;;;7.53;5.20;;;15.40;99.90;;;;;;4914659;29;20032;-86
2022/09/24 11:51:48;;;;;;;5.32;4.43;;;15.40;99.90;;;;;;4911635;29;20052;-86
2022/09/24 11:54:20;;;;;;;5.15;4.43;;;15.40;99.90;;;;;;4914468;29;20036;-86
2022/09/24 11:57:07;;;;;;;14.10;4.85;;;15.40;99.90;;;;;;4930148;29;20040;-85
2022/09/24 11:59:55;;;;;;;11.73;3.58;;;15.40;99.90;;;;;;4914188;29;20043;-86
2022/09/24 12:02:27;;;;;;;7.20;4.47;;;15.40;99.90;;;;;;4913895;29;20059;-86
2022/09/24 12:05:06;;;;;;;6.10;4.60;;;15.40;99.90;;;;;;4926275;29;20032;-86
2022/09/24 12:07:54;;;;;;;5.00;4.15;;;15.40;99.90;;;;;;4930376;29;20028;-86
2022/09/24 12:10:28;;;;;;;6.47;5.03;;;15.40;99.90;;;;;;4929918;29;20036;-86
2022/09/24 12:13:11;;;;;;;5.68;4.78;;;15.40;99.90;;;;;;4930213;29;20036;-86
2022/09/24 12:16:14;;;;;;;6.43;5.05;;;15.30;99.90;;;;;;4930029;29;20028;-86
2022/09/24 12:18:51;;;;;;;8.98;4.78;;;15.30;99.90;;;;;;4929008;29;20546;-88
2022/09/24 12:21:32;;;;;;;5.88;4.78;;;15.40;99.90;;;;;;4929713;29;20048;-88
2022/09/24 12:24:07;;;;;;;8.43;4.40;;;15.30;99.90;;;;;;4918075;29;20036;-87
2022/09/24 12:26:36;;;;;;;6.13;4.10;;;15.40;99.90;;;;;;4929699;29;20032;-88
2022/09/24 12:35:30;;;;;;;10.07;4.68;;;15.40;99.90;;;;;;4930866;29;20039;-87
2022/09/24 12:38:25;;;;;;;5.30;4.55;;;15.40;99.90;;;;;;4929730;29;20490;-88
2022/09/24 12:41:04;;;;;;;9.05;5.68;;;15.40;99.90;;;;;;4928076;29;20076;-88
2022/09/24 12:43:46;;;;;;;5.72;5.22;;;15.40;99.90;;;;;;4929765;29;20111;-88
2022/09/24 12:46:18;;;;;;;4.20;3.80;;;15.40;99.90;;;;;;4913719;29;20050;-88
2022/09/24 12:48:46;;;;;;;5.63;4.57;;;15.40;99.90;;;;;;4929636;29;20068;-88
2022/09/24 12:51:13;;;;;;;8.63;6.15;;;15.40;99.90;;;;;;4913564;29;20032;-88
2022/09/24 12:53:53;;;;;;;6.07;5.07;;;15.40;99.90;;;;;;4930625;29;20040;-88
2022/09/24 12:56:25;;;;;;;3.80;3.50;;;15.40;99.90;;;;;;4914870;29;20040;-88
2022/09/24 12:58:52;;;;;;;4.60;4.30;;;15.40;99.90;;;;;;4930409;29;20072;-88
2022/09/24 13:01:24;;;;;;;5.20;4.70;;;15.40;99.90;;;;;;4929249;29;20045;-88
2022/09/24 13:04:14;;;;;;;7.88;5.35;;;15.40;99.90;;;;;;4930490;29;20032;-88
2022/09/24 13:06:42;;;;;;;8.02;5.00;;;15.40;99.90;;;;;;4913324;29;20038;-88
2022/09/24 13:09:31;;;;;;;5.60;4.45;;;15.50;99.90;;;;;;4928971;29;20028;-88
2022/09/24 13:12:16;;;;;;;5.32;4.72;;;15.40;99.90;;;;;;4929589;29;20052;-88
2022/09/24 13:14:49;;;;;;;6.70;5.40;;;15.40;99.90;;;;;;4928194;29;20036;-87
2022/09/24 13:17:17;;;;;;;8.82;5.25;;;15.40;99.90;;;;;;4929266;29;20039;-88
2022/09/24 13:19:45;;;;;;;6.15;5.47;;;15.40;99.90;;;;;;4929200;29;20035;-88